Sealand Illinois — 9HA3372 — position and weather

sailwx.info

Track history (hours):
 
Tides and Currents Weather Stations Pressure Air Temp Water Temp Dewpoint Dewpoint Depression Visibility Wind Speed Wind Dir Waves Ship Positions

Sealand Illinois

Last reported at 2017-Nov-17 16:10 UTC. Time now 2017-Nov-18 08:34 UTC.
Position N 37°14' W 001°04'.

Length 304 m; draft 12.2 m.

Type: Ship (hazmat cat A). MMSI: 229487000.

Date/timePositionNaut miles runAvg speedWind from/ knotsBaromVisibWave heightAir tempDewpointWater temp
2017-Nov-17 16:10N 37°14' W 001°04'212.1
2017-Nov-17 16:00N 37°15' W 001°02'612.0
2017-Nov-17 15:30N 37°19' W 000°56'611.9
2017-Nov-17 15:00N 37°23' W 000°50'611.8
2017-Nov-17 14:30N 37°27' W 000°45'611.6
2017-Nov-17 13:58N 37°31' W 000°39'511.7
2017-Nov-17 13:30N 37°35' W 000°34'611.7
2017-Nov-17 13:00N 37°39' W 000°30'611.7
2017-Nov-17 12:30N 37°44' W 000°26'611.6
2017-Nov-17 11:59N 37°49' W 000°22'611.3
2017-Nov-17 11:28N 37°54' W 000°18'511.5
2017-Nov-17 11:00N 37°58' W 000°13'1911.0
2017-Nov-17 09:15N 38°14' E 000°00'510.9
2017-Nov-17 08:45N 38°19' E 000°04'311.1
2017-Nov-17 08:30N 38°21' E 000°06'511.0
2017-Nov-17 08:00N 38°26' E 000°09'412 8.0
2017-Nov-15 04:11N 43°00' E 006°55'612.7
2017-Nov-15 03:42N 43°04' E 007°02'212.5
2017-Nov-15 03:30N 43°06' E 007°05'612.6
2017-Nov-15 03:00N 43°10' E 007°11'612.8
2017-Nov-15 02:30N 43°14' E 007°18'612.7
2017-Nov-15 02:00N 43°18' E 007°25'612.6
2017-Nov-15 01:30N 43°22' E 007°31'712.9
2017-Nov-15 01:00N 43°27' E 007°37'1012.6
2017-Nov-15 00:10N 43°34' E 007°48'212.8
2017-Nov-14 23:59N 43°35' E 007°50'712.5
2017-Nov-14 23:27N 43°40' E 007°57'1913.1
2017-Nov-14 21:58N 43°53' E 008°17'613.3
2017-Nov-14 21:30N 43°57' E 008°23'612.9
2017-Nov-14 21:00N 44°02' E 008°28'613.0
2017-Nov-14 20:30N 44°08' E 008°33'714.0
2017-Nov-14 20:00N 44°14' E 008°38'714.1
2017-Nov-14 19:30N 44°21' E 008°41'611.1
2017-Nov-14 19:00N 44°25' E 008°46'1 2.1
2017-Nov-14 18:28N 44°25' E 008°48'0 0.0
2017-Nov-14 17:58N 44°25' E 008°48'0 0.0
2017-Nov-14 17:28N 44°25' E 008°48'0 0.0
2017-Nov-14 16:58N 44°25' E 008°48'0 0.0
2017-Nov-14 16:28N 44°25' E 008°48'0 0.0
2017-Nov-14 15:58N 44°25' E 008°48'0 0.0
2017-Nov-14 15:28N 44°25' E 008°48'0 0.0
2017-Nov-14 14:58N 44°25' E 008°48'0 0.0
2017-Nov-14 14:28N 44°25' E 008°48'0 0.0
2017-Nov-14 13:58N 44°25' E 008°48'0 0.0
2017-Nov-14 13:25N 44°25' E 008°48'0 0.0
2017-Nov-14 12:58N 44°25' E 008°48'0 0.0
2017-Nov-14 12:25N 44°25' E 008°48'0 0.0
2017-Nov-14 11:58N 44°25' E 008°48'0 0.0
2017-Nov-14 11:28N 44°25' E 008°48'0 0.0
2017-Nov-14 10:58N 44°25' E 008°48'0 0.0
2017-Nov-14 10:28N 44°25' E 008°48'0 0.0
2017-Nov-14 09:58N 44°25' E 008°48'0 0.0
2017-Nov-14 09:28N 44°25' E 008°48'0 0.0
2017-Nov-14 08:58N 44°25' E 008°48'0 0.0
2017-Nov-14 08:28N 44°25' E 008°48'0 0.0
2017-Nov-14 07:58N 44°25' E 008°48'0 0.0
2017-Nov-14 07:28N 44°25' E 008°48'0 0.0
2017-Nov-14 06:58N 44°25' E 008°48'0 0.0
2017-Nov-14 06:28N 44°25' E 008°48'0 0.0
2017-Nov-14 05:58N 44°25' E 008°48'0 0.0
2017-Nov-14 05:28N 44°25' E 008°48'0 0.0
2017-Nov-14 04:58N 44°25' E 008°48'0 0.0
2017-Nov-14 04:28N 44°25' E 008°48'0 0.0
2017-Nov-14 03:58N 44°25' E 008°48'0 0.0
2017-Nov-14 03:28N 44°25' E 008°48'0 0.0
2017-Nov-14 02:58N 44°25' E 008°48'0 0.0
2017-Nov-14 02:28N 44°25' E 008°48'0 0.0
2017-Nov-14 01:58N 44°25' E 008°48'0 0.0
2017-Nov-14 01:29N 44°25' E 008°48'1 1.5
2017-Nov-14 01:00N 44°25' E 008°47'3 5.5
2017-Nov-14 00:30N 44°23' E 008°44'2 4.9
2017-Nov-14 00:01N 44°21' E 008°43'2 5.0
2017-Nov-13 23:31N 44°19' E 008°45'2 4.7
2017-Nov-13 23:01N 44°16' E 008°46'1 1.7
2017-Nov-13 22:31N 44°17' E 008°47'1 1.5
2017-Nov-13 22:01N 44°18' E 008°48'47 2.3
2017-Nov-13 01:59N 44°06' E 009°51'0 0.0
2017-Nov-13 01:29N 44°06' E 009°51'0 0.0
2017-Nov-13 00:59N 44°06' E 009°51'0 0.0
2017-Nov-13 00:29N 44°06' E 009°51'0 0.0
2017-Nov-12 23:59N 44°06' E 009°51'0 0.0
2017-Nov-12 23:29N 44°06' E 009°51'0 0.0
2017-Nov-12 22:59N 44°06' E 009°51'0 0.0
2017-Nov-12 22:26N 44°06' E 009°51'0 0.0
2017-Nov-12 21:56N 44°06' E 009°51'0 0.0
2017-Nov-12 21:29N 44°06' E 009°51'0 0.0
2017-Nov-12 20:59N 44°06' E 009°51'0 0.0
2017-Nov-12 20:29N 44°06' E 009°51'0 0.0
2017-Nov-12 19:59N 44°06' E 009°51'0 0.0
2017-Nov-12 19:29N 44°06' E 009°51'0 0.0
2017-Nov-12 18:59N 44°06' E 009°51'0 0.0
2017-Nov-12 18:29N 44°06' E 009°51'0 0.0
2017-Nov-12 17:59N 44°06' E 009°51'0 0.0
2017-Nov-12 17:29N 44°06' E 009°51'0 0.0
2017-Nov-12 16:59N 44°06' E 009°51'0 0.0
2017-Nov-12 16:29N 44°06' E 009°51'0 0.0
2017-Nov-12 15:53N 44°06' E 009°51'0 0.0
2017-Nov-12 15:29N 44°06' E 009°51'0 0.0
2017-Nov-12 14:56N 44°06' E 009°51'0 0.0
2017-Nov-12 14:29N 44°06' E 009°51'0 0.0
2017-Nov-12 13:59N 44°06' E 009°51'0 0.0
2017-Nov-12 13:26N 44°06' E 009°51'0 0.0
2017-Nov-12 12:59N 44°06' E 009°51'0 0.0
2017-Nov-12 12:26N 44°06' E 009°51'0 0.0
2017-Nov-12 11:59N 44°06' E 009°51'0 0.0
2017-Nov-12 11:29N 44°06' E 009°51'0 0.0
2017-Nov-12 10:59N 44°06' E 009°51'0 0.0
2017-Nov-12 10:29N 44°06' E 009°51'0 0.0
2017-Nov-12 09:59N 44°06' E 009°51'0 0.0
2017-Nov-12 09:23N 44°06' E 009°51'0 0.0
2017-Nov-12 08:59N 44°06' E 009°51'0 0.0
2017-Nov-12 08:29N 44°06' E 009°51'0 0.0
2017-Nov-12 07:59N 44°06' E 009°51'0 0.0
2017-Nov-12 07:29N 44°06' E 009°51'0 0.0
2017-Nov-12 07:00N 44°06' E 009°51'1 2.1
2017-Nov-12 06:30N 44°05' E 009°51'4 7.3
2017-Nov-12 06:00N 44°02' E 009°53'4 8.9
2017-Nov-12 05:30N 43°58' E 009°56'612.0
2017-Nov-12 05:00N 43°52' E 009°55'612.0
2017-Nov-12 04:30N 43°46' E 009°53'611.9
2017-Nov-12 04:00N 43°40' E 009°52'611.4
2017-Nov-12 03:30N 43°35' E 009°55'611.7
2017-Nov-12 03:00N 43°32' E 010°01'612.0
2017-Nov-12 02:30N 43°29' E 010°09'610.9
2017-Nov-12 01:57N 43°32' E 010°17'2 5.1
2017-Nov-12 01:30N 43°34' E 010°18'0 0.8
2017-Nov-12 00:55N 43°35' E 010°18'0 0.0
2017-Nov-12 00:28N 43°35' E 010°18'0 0.0
2017-Nov-11 23:58N 43°35' E 010°18'0 0.0
2017-Nov-11 23:28N 43°35' E 010°18'0 0.0
2017-Nov-11 22:55N 43°35' E 010°18'0 0.0
2017-Nov-11 22:28N 43°35' E 010°18'0 0.0
2017-Nov-11 21:58N 43°35' E 010°18'0 0.0
2017-Nov-11 21:25N 43°35' E 010°18'0 0.0
2017-Nov-11 20:58N 43°35' E 010°18'0 0.0
2017-Nov-11 20:25N 43°35' E 010°18'0 0.0
2017-Nov-11 19:58N 43°35' E 010°18'0 0.0
2017-Nov-11 19:28N 43°35' E 010°18'0 0.0
2017-Nov-11 18:58N 43°35' E 010°18'0 0.0
2017-Nov-11 18:22N 43°35' E 010°18'0 0.0
2017-Nov-11 17:58N 43°35' E 010°18'0 0.0
2017-Nov-11 17:28N 43°35' E 010°18'0 0.0
2017-Nov-11 16:58N 43°35' E 010°18'0 0.0
2017-Nov-11 16:22N 43°35' E 010°18'0 0.0
2017-Nov-11 15:58N 43°35' E 010°18'0 0.0
2017-Nov-11 15:28N 43°35' E 010°18'0 0.0
2017-Nov-11 14:49N 43°35' E 010°18'0 0.0
2017-Nov-11 14:25N 43°35' E 010°18'0 0.0
2017-Nov-11 13:55N 43°35' E 010°18'0 0.0
2017-Nov-11 13:28N 43°35' E 010°18'0 0.0
2017-Nov-11 12:55N 43°35' E 010°18'0 0.0
2017-Nov-11 12:25N 43°35' E 010°18'0 0.0
2017-Nov-11 11:58N 43°35' E 010°18'0 0.0
2017-Nov-11 11:28N 43°35' E 010°18'0 0.0
2017-Nov-11 10:55N 43°35' E 010°18'0 0.0
2017-Nov-11 10:25N 43°35' E 010°18'0 0.0
2017-Nov-11 09:58N 43°35' E 010°18'0 0.0
2017-Nov-11 09:22N 43°35' E 010°18'0 0.0
2017-Nov-11 08:58N 43°35' E 010°18'0 0.0
2017-Nov-11 08:25N 43°35' E 010°18'0 0.0
2017-Nov-11 07:58N 43°35' E 010°18'0 0.0
2017-Nov-11 07:28N 43°35' E 010°18'0 0.4
2017-Nov-11 07:00N 43°34' E 010°18'2 4.0
2017-Nov-11 06:25N 43°32' E 010°17'2 5.1
2017-Nov-11 06:00N 43°31' E 010°15'2 4.3
2017-Nov-11 05:30N 43°29' E 010°13'510.8
2017-Nov-11 05:00N 43°24' E 010°09'1119.1
2017-Nov-11 04:26N 43°14' E 010°06'919.8
2017-Nov-11 04:00N 43°06' E 010°02'1020.1
2017-Nov-11 03:30N 42°56' E 009°59'22618.5
2017-Nov-10 15:19N 40°38' E 013°59'619.8
2017-Nov-10 15:00N 40°40' E 014°06'1019.2
2017-Nov-10 14:30N 40°46' E 014°16'4 7.8
2017-Nov-10 13:59N 40°50' E 014°17'0 0.1
2017-Nov-10 13:30N 40°50' E 014°17'0 0.0
2017-Nov-10 12:57N 40°50' E 014°17'0 0.0
2017-Nov-10 12:15N 40°50' E 014°17'0 0.0
2017-Nov-10 12:00N 40°50' E 014°17'0 0.0
2017-Nov-10 11:30N 40°50' E 014°17'0 0.0
2017-Nov-10 11:00N 40°50' E 014°17'0 0.0
2017-Nov-10 10:15N 40°50' E 014°17'0 0.0
2017-Nov-10 09:57N 40°50' E 014°17'0 0.0
2017-Nov-10 09:30N 40°50' E 014°17'0 0.0
2017-Nov-10 08:57N 40°50' E 014°17'0 0.0
2017-Nov-10 08:03N 40°50' E 014°17'0 0.0
2017-Nov-10 07:48N 40°50' E 014°17'0 0.0
2017-Nov-09 20:57N 40°50' E 014°17'0 0.0
2017-Nov-09 20:27N 40°50' E 014°17'0 0.0
2017-Nov-09 19:57N 40°50' E 014°17'0 0.0
2017-Nov-09 19:27N 40°50' E 014°17'0 0.0
2017-Nov-09 18:45N 40°50' E 014°17'0 0.0
2017-Nov-09 18:15N 40°50' E 014°17'0 0.0
2017-Nov-09 17:45N 40°50' E 014°17'0 0.0
2017-Nov-09 17:15N 40°50' E 014°17'0 0.0
2017-Nov-09 16:51N 40°50' E 014°17'0 0.0
2017-Nov-09 16:21N 40°50' E 014°17'0 0.0
2017-Nov-09 15:51N 40°50' E 014°17'0 0.0
2017-Nov-09 15:21N 40°50' E 014°17'0 0.0
2017-Nov-09 14:51N 40°50' E 014°17'0 0.0
2017-Nov-09 14:21N 40°50' E 014°17'0 0.0
2017-Nov-09 13:51N 40°50' E 014°17'0 0.0
2017-Nov-09 13:21N 40°50' E 014°17'0 0.0
2017-Nov-09 12:54N 40°50' E 014°17'0 0.0
2017-Nov-09 12:21N 40°50' E 014°17'0 0.0
2017-Nov-09 11:54N 40°50' E 014°17'0 0.0
2017-Nov-09 11:27N 40°50' E 014°17'0 0.0
2017-Nov-09 11:00N 40°50' E 014°17'1 1.3
2017-Nov-09 10:30N 40°50' E 014°17'2 3.9
2017-Nov-09 10:00N 40°48' E 014°17'3 5.7
2017-Nov-09 09:30N 40°45' E 014°16'714.6
2017-Nov-09 09:00N 40°39' E 014°11'1815.2
2017-Nov-09 07:51N 40°22' E 014°15'6318.2
2017-Nov-09 04:24N 39°29' E 014°58'718.4
2017-Nov-09 04:00N 39°23' E 015°03'1518.3
2017-Nov-09 03:10N 39°10' E 015°14'417.9
2017-Nov-09 02:58N 39°06' E 015°16'818.0
2017-Nov-09 02:30N 38°59' E 015°21'917.9
2017-Nov-09 02:01N 38°52' E 015°27'917.8
2017-Nov-09 01:30N 38°45' E 015°35'917.9
2017-Nov-09 01:00N 38°37' E 015°41'917.9
2017-Nov-09 00:31N 38°31' E 015°49'611.3
2017-Nov-09 00:01N 38°27' E 015°54'1 1.5
2017-Nov-08 23:29N 38°27' E 015°54'0 0.0
2017-Nov-08 22:59N 38°27' E 015°54'0 0.0
2017-Nov-08 22:29N 38°27' E 015°54'0 0.0
2017-Nov-08 21:56N 38°27' E 015°54'0 0.0
2017-Nov-08 21:26N 38°27' E 015°54'0 0.0
2017-Nov-08 20:59N 38°27' E 015°54'0 0.0
2017-Nov-08 20:26N 38°27' E 015°54'0 0.0
2017-Nov-08 19:59N 38°27' E 015°54'0 0.0
2017-Nov-08 19:29N 38°27' E 015°54'0 0.0
2017-Nov-08 18:59N 38°27' E 015°54'0 0.0
2017-Nov-08 18:29N 38°27' E 015°54'0 0.0
2017-Nov-08 17:59N 38°27' E 015°54'0 0.0
2017-Nov-08 17:23N 38°27' E 015°54'0 0.0
2017-Nov-08 16:59N 38°27' E 015°54'0 0.0
2017-Nov-08 16:29N 38°27' E 015°54'0 0.0
2017-Nov-08 15:56N 38°27' E 015°54'0 0.0
2017-Nov-08 15:29N 38°27' E 015°54'0 0.0
2017-Nov-08 14:59N 38°27' E 015°54'0 0.0
2017-Nov-08 14:23N 38°27' E 015°54'0 0.0
2017-Nov-08 13:59N 38°27' E 015°54'0 0.0
2017-Nov-08 13:29N 38°27' E 015°54'0 0.0
2017-Nov-08 12:56N 38°27' E 015°54'0 0.0
2017-Nov-08 12:26N 38°27' E 015°54'0 0.0
2017-Nov-08 11:56N 38°27' E 015°54'0 0.0
2017-Nov-08 11:26N 38°27' E 015°54'0 0.0
2017-Nov-08 10:56N 38°27' E 015°54'0 0.0
2017-Nov-08 10:23N 38°27' E 015°54'0 0.0
2017-Nov-08 09:44N 38°27' E 015°54'0 0.0
2017-Nov-08 09:26N 38°27' E 015°54'0 0.0
2017-Nov-08 08:56N 38°27' E 015°54'0 0.0
2017-Nov-08 08:29N 38°27' E 015°54'0 0.0
2017-Nov-08 07:47N 38°27' E 015°54'0 0.0
2017-Nov-08 07:29N 38°27' E 015°54'0 0.0
2017-Nov-08 06:50N 38°27' E 015°54'0 0.0
2017-Nov-08 06:14N 38°27' E 015°54'0 0.0
2017-Nov-08 05:56N 38°27' E 015°54'0 0.0
2017-Nov-08 05:26N 38°27' E 015°54'0 0.0
2017-Nov-08 04:44N 38°27' E 015°54'0 0.0
2017-Nov-08 04:20N 38°27' E 015°54'0 0.0
2017-Nov-08 03:56N 38°27' E 015°54'0 0.0
2017-Nov-08 03:26N 38°27' E 015°54'0 0.0
2017-Nov-08 02:56N 38°27' E 015°54'0 0.0
2017-Nov-08 02:26N 38°27' E 015°54'0 0.0
2017-Nov-08 01:56N 38°27' E 015°54'0 0.0
2017-Nov-08 01:26N 38°27' E 015°54'0 0.0
2017-Nov-08 00:56N 38°27' E 015°54'0 0.0
2017-Nov-08 00:26N 38°27' E 015°54'0 0.0
2017-Nov-07 23:56N 38°27' E 015°54'0 0.0
2017-Nov-07 23:26N 38°27' E 015°54'0 0.0
2017-Nov-07 22:56N 38°27' E 015°54'0 0.0
2017-Nov-07 22:26N 38°27' E 015°54'0 0.0
2017-Nov-07 21:56N 38°27' E 015°54'0 0.0
2017-Nov-07 21:26N 38°27' E 015°54'0 0.0
2017-Nov-07 20:56N 38°27' E 015°54'0 0.0
2017-Nov-07 18:21N 38°27' E 015°54'0 0.0
2017-Nov-07 17:52N 38°27' E 015°54'1 2.3
2017-Nov-07 17:28N 38°27' E 015°54'7 9.4
2017-Nov-07 16:45N 38°26' E 015°45'517.8
2017-Nov-07 16:30N 38°25' E 015°39'  
Track history (hours):
 
Tides and Currents Weather Stations Pressure Air Temp Water Temp Dewpoint Dewpoint Depression Visibility Wind Speed Wind Dir Waves Ship Positions

Sealand Illinois

Last reported at 2017-Nov-17 16:10 UTC. Time now 2017-Nov-18 08:34 UTC.
Position N 37°14' W 001°04'.

Length 304 m; draft 12.2 m.

Type: Ship (hazmat cat A). MMSI: 229487000.

Date/timePositionNaut miles runAvg speedWind from/ knotsBaromVisibWave heightAir tempDewpointWater temp
2017-Nov-17 16:10N 37°14' W 001°04'212.1
2017-Nov-17 16:00N 37°15' W 001°02'612.0
2017-Nov-17 15:30N 37°19' W 000°56'611.9
2017-Nov-17 15:00N 37°23' W 000°50'611.8
2017-Nov-17 14:30N 37°27' W 000°45'611.6
2017-Nov-17 13:58N 37°31' W 000°39'511.7
2017-Nov-17 13:30N 37°35' W 000°34'611.7
2017-Nov-17 13:00N 37°39' W 000°30'611.7
2017-Nov-17 12:30N 37°44' W 000°26'611.6
2017-Nov-17 11:59N 37°49' W 000°22'611.3
2017-Nov-17 11:28N 37°54' W 000°18'511.5
2017-Nov-17 11:00N 37°58' W 000°13'1911.0
2017-Nov-17 09:15N 38°14' E 000°00'510.9
2017-Nov-17 08:45N 38°19' E 000°04'311.1
2017-Nov-17 08:30N 38°21' E 000°06'511.0
2017-Nov-17 08:00N 38°26' E 000°09'412 8.0
2017-Nov-15 04:11N 43°00' E 006°55'612.7
2017-Nov-15 03:42N 43°04' E 007°02'212.5
2017-Nov-15 03:30N 43°06' E 007°05'612.6
2017-Nov-15 03:00N 43°10' E 007°11'612.8
2017-Nov-15 02:30N 43°14' E 007°18'612.7
2017-Nov-15 02:00N 43°18' E 007°25'612.6
2017-Nov-15 01:30N 43°22' E 007°31'712.9
2017-Nov-15 01:00N 43°27' E 007°37'1012.6
2017-Nov-15 00:10N 43°34' E 007°48'212.8
2017-Nov-14 23:59N 43°35' E 007°50'712.5
2017-Nov-14 23:27N 43°40' E 007°57'1913.1
2017-Nov-14 21:58N 43°53' E 008°17'613.3
2017-Nov-14 21:30N 43°57' E 008°23'612.9
2017-Nov-14 21:00N 44°02' E 008°28'613.0
2017-Nov-14 20:30N 44°08' E 008°33'714.0
2017-Nov-14 20:00N 44°14' E 008°38'714.1
2017-Nov-14 19:30N 44°21' E 008°41'611.1
2017-Nov-14 19:00N 44°25' E 008°46'1 2.1
2017-Nov-14 18:28N 44°25' E 008°48'0 0.0
2017-Nov-14 17:58N 44°25' E 008°48'0 0.0
2017-Nov-14 17:28N 44°25' E 008°48'0 0.0
2017-Nov-14 16:58N 44°25' E 008°48'0 0.0
2017-Nov-14 16:28N 44°25' E 008°48'0 0.0
2017-Nov-14 15:58N 44°25' E 008°48'0 0.0
2017-Nov-14 15:28N 44°25' E 008°48'0 0.0
2017-Nov-14 14:58N 44°25' E 008°48'0 0.0
2017-Nov-14 14:28N 44°25' E 008°48'0 0.0
2017-Nov-14 13:58N 44°25' E 008°48'0 0.0
2017-Nov-14 13:25N 44°25' E 008°48'0 0.0
2017-Nov-14 12:58N 44°25' E 008°48'0 0.0
2017-Nov-14 12:25N 44°25' E 008°48'0 0.0
2017-Nov-14 11:58N 44°25' E 008°48'0 0.0
2017-Nov-14 11:28N 44°25' E 008°48'0 0.0
2017-Nov-14 10:58N 44°25' E 008°48'0 0.0
2017-Nov-14 10:28N 44°25' E 008°48'0 0.0
2017-Nov-14 09:58N 44°25' E 008°48'0 0.0
2017-Nov-14 09:28N 44°25' E 008°48'0 0.0
2017-Nov-14 08:58N 44°25' E 008°48'0 0.0
2017-Nov-14 08:28N 44°25' E 008°48'0 0.0
2017-Nov-14 07:58N 44°25' E 008°48'0 0.0
2017-Nov-14 07:28N 44°25' E 008°48'0 0.0
2017-Nov-14 06:58N 44°25' E 008°48'0 0.0
2017-Nov-14 06:28N 44°25' E 008°48'0 0.0
2017-Nov-14 05:58N 44°25' E 008°48'0 0.0
2017-Nov-14 05:28N 44°25' E 008°48'0 0.0
2017-Nov-14 04:58N 44°25' E 008°48'0 0.0
2017-Nov-14 04:28N 44°25' E 008°48'0 0.0
2017-Nov-14 03:58N 44°25' E 008°48'0 0.0
2017-Nov-14 03:28N 44°25' E 008°48'0 0.0
2017-Nov-14 02:58N 44°25' E 008°48'0 0.0
2017-Nov-14 02:28N 44°25' E 008°48'0 0.0
2017-Nov-14 01:58N 44°25' E 008°48'0 0.0
2017-Nov-14 01:29N 44°25' E 008°48'1 1.5
2017-Nov-14 01:00N 44°25' E 008°47'3 5.5
2017-Nov-14 00:30N 44°23' E 008°44'2 4.9
2017-Nov-14 00:01N 44°21' E 008°43'2 5.0
2017-Nov-13 23:31N 44°19' E 008°45'2 4.7
2017-Nov-13 23:01N 44°16' E 008°46'1 1.7
2017-Nov-13 22:31N 44°17' E 008°47'1 1.5
2017-Nov-13 22:01N 44°18' E 008°48'47 2.3
2017-Nov-13 01:59N 44°06' E 009°51'0 0.0
2017-Nov-13 01:29N 44°06' E 009°51'0 0.0
2017-Nov-13 00:59N 44°06' E 009°51'0 0.0
2017-Nov-13 00:29N 44°06' E 009°51'0 0.0
2017-Nov-12 23:59N 44°06' E 009°51'0 0.0
2017-Nov-12 23:29N 44°06' E 009°51'0 0.0
2017-Nov-12 22:59N 44°06' E 009°51'0 0.0
2017-Nov-12 22:26N 44°06' E 009°51'0 0.0
2017-Nov-12 21:56N 44°06' E 009°51'0 0.0
2017-Nov-12 21:29N 44°06' E 009°51'0 0.0
2017-Nov-12 20:59N 44°06' E 009°51'0 0.0
2017-Nov-12 20:29N 44°06' E 009°51'0 0.0
2017-Nov-12 19:59N 44°06' E 009°51'0 0.0
2017-Nov-12 19:29N 44°06' E 009°51'0 0.0
2017-Nov-12 18:59N 44°06' E 009°51'0 0.0
2017-Nov-12 18:29N 44°06' E 009°51'0 0.0
2017-Nov-12 17:59N 44°06' E 009°51'0 0.0
2017-Nov-12 17:29N 44°06' E 009°51'0 0.0
2017-Nov-12 16:59N 44°06' E 009°51'0 0.0
2017-Nov-12 16:29N 44°06' E 009°51'0 0.0
2017-Nov-12 15:53N 44°06' E 009°51'0 0.0
2017-Nov-12 15:29N 44°06' E 009°51'0 0.0
2017-Nov-12 14:56N 44°06' E 009°51'0 0.0
2017-Nov-12 14:29N 44°06' E 009°51'0 0.0
2017-Nov-12 13:59N 44°06' E 009°51'0 0.0
2017-Nov-12 13:26N 44°06' E 009°51'0 0.0
2017-Nov-12 12:59N 44°06' E 009°51'0 0.0
2017-Nov-12 12:26N 44°06' E 009°51'0 0.0
2017-Nov-12 11:59N 44°06' E 009°51'0 0.0
2017-Nov-12 11:29N 44°06' E 009°51'0 0.0
2017-Nov-12 10:59N 44°06' E 009°51'0 0.0
2017-Nov-12 10:29N 44°06' E 009°51'0 0.0
2017-Nov-12 09:59N 44°06' E 009°51'0 0.0
2017-Nov-12 09:23N 44°06' E 009°51'0 0.0
2017-Nov-12 08:59N 44°06' E 009°51'0 0.0
2017-Nov-12 08:29N 44°06' E 009°51'0 0.0
2017-Nov-12 07:59N 44°06' E 009°51'0 0.0
2017-Nov-12 07:29N 44°06' E 009°51'0 0.0
2017-Nov-12 07:00N 44°06' E 009°51'1 2.1
2017-Nov-12 06:30N 44°05' E 009°51'4 7.3
2017-Nov-12 06:00N 44°02' E 009°53'4 8.9
2017-Nov-12 05:30N 43°58' E 009°56'612.0
2017-Nov-12 05:00N 43°52' E 009°55'612.0
2017-Nov-12 04:30N 43°46' E 009°53'611.9
2017-Nov-12 04:00N 43°40' E 009°52'611.4
2017-Nov-12 03:30N 43°35' E 009°55'611.7
2017-Nov-12 03:00N 43°32' E 010°01'612.0
2017-Nov-12 02:30N 43°29' E 010°09'610.9
2017-Nov-12 01:57N 43°32' E 010°17'2 5.1
2017-Nov-12 01:30N 43°34' E 010°18'0 0.8
2017-Nov-12 00:55N 43°35' E 010°18'0 0.0
2017-Nov-12 00:28N 43°35' E 010°18'0 0.0
2017-Nov-11 23:58N 43°35' E 010°18'0 0.0
2017-Nov-11 23:28N 43°35' E 010°18'0 0.0
2017-Nov-11 22:55N 43°35' E 010°18'0 0.0
2017-Nov-11 22:28N 43°35' E 010°18'0 0.0
2017-Nov-11 21:58N 43°35' E 010°18'0 0.0
2017-Nov-11 21:25N 43°35' E 010°18'0 0.0
2017-Nov-11 20:58N 43°35' E 010°18'0 0.0
2017-Nov-11 20:25N 43°35' E 010°18'0 0.0
2017-Nov-11 19:58N 43°35' E 010°18'0 0.0
2017-Nov-11 19:28N 43°35' E 010°18'0 0.0
2017-Nov-11 18:58N 43°35' E 010°18'0 0.0
2017-Nov-11 18:22N 43°35' E 010°18'0 0.0
2017-Nov-11 17:58N 43°35' E 010°18'0 0.0
2017-Nov-11 17:28N 43°35' E 010°18'0 0.0
2017-Nov-11 16:58N 43°35' E 010°18'0 0.0
2017-Nov-11 16:22N 43°35' E 010°18'0 0.0
2017-Nov-11 15:58N 43°35' E 010°18'0 0.0
2017-Nov-11 15:28N 43°35' E 010°18'0 0.0
2017-Nov-11 14:49N 43°35' E 010°18'0 0.0
2017-Nov-11 14:25N 43°35' E 010°18'0 0.0
2017-Nov-11 13:55N 43°35' E 010°18'0 0.0
2017-Nov-11 13:28N 43°35' E 010°18'0 0.0
2017-Nov-11 12:55N 43°35' E 010°18'0 0.0
2017-Nov-11 12:25N 43°35' E 010°18'0 0.0
2017-Nov-11 11:58N 43°35' E 010°18'0 0.0
2017-Nov-11 11:28N 43°35' E 010°18'0 0.0
2017-Nov-11 10:55N 43°35' E 010°18'0 0.0
2017-Nov-11 10:25N 43°35' E 010°18'0 0.0
2017-Nov-11 09:58N 43°35' E 010°18'0 0.0
2017-Nov-11 09:22N 43°35' E 010°18'0 0.0
2017-Nov-11 08:58N 43°35' E 010°18'0 0.0
2017-Nov-11 08:25N 43°35' E 010°18'0 0.0
2017-Nov-11 07:58N 43°35' E 010°18'0 0.0
2017-Nov-11 07:28N 43°35' E 010°18'0 0.4
2017-Nov-11 07:00N 43°34' E 010°18'2 4.0
2017-Nov-11 06:25N 43°32' E 010°17'2 5.1
2017-Nov-11 06:00N 43°31' E 010°15'2 4.3
2017-Nov-11 05:30N 43°29' E 010°13'510.8
2017-Nov-11 05:00N 43°24' E 010°09'1119.1
2017-Nov-11 04:26N 43°14' E 010°06'919.8
2017-Nov-11 04:00N 43°06' E 010°02'1020.1
2017-Nov-11 03:30N 42°56' E 009°59'22618.5
2017-Nov-10 15:19N 40°38' E 013°59'619.8
2017-Nov-10 15:00N 40°40' E 014°06'1019.2
2017-Nov-10 14:30N 40°46' E 014°16'4 7.8
2017-Nov-10 13:59N 40°50' E 014°17'0 0.1
2017-Nov-10 13:30N 40°50' E 014°17'0 0.0
2017-Nov-10 12:57N 40°50' E 014°17'0 0.0
2017-Nov-10 12:15N 40°50' E 014°17'0 0.0
2017-Nov-10 12:00N 40°50' E 014°17'0 0.0
2017-Nov-10 11:30N 40°50' E 014°17'0 0.0
2017-Nov-10 11:00N 40°50' E 014°17'0 0.0
2017-Nov-10 10:15N 40°50' E 014°17'0 0.0
2017-Nov-10 09:57N 40°50' E 014°17'0 0.0
2017-Nov-10 09:30N 40°50' E 014°17'0 0.0
2017-Nov-10 08:57N 40°50' E 014°17'0 0.0
2017-Nov-10 08:03N 40°50' E 014°17'0 0.0
2017-Nov-10 07:48N 40°50' E 014°17'0 0.0
2017-Nov-09 20:57N 40°50' E 014°17'0 0.0
2017-Nov-09 20:27N 40°50' E 014°17'0 0.0
2017-Nov-09 19:57N 40°50' E 014°17'0 0.0
2017-Nov-09 19:27N 40°50' E 014°17'0 0.0
2017-Nov-09 18:45N 40°50' E 014°17'0 0.0
2017-Nov-09 18:15N 40°50' E 014°17'0 0.0
2017-Nov-09 17:45N 40°50' E 014°17'0 0.0
2017-Nov-09 17:15N 40°50' E 014°17'0 0.0
2017-Nov-09 16:51N 40°50' E 014°17'0 0.0
2017-Nov-09 16:21N 40°50' E 014°17'0 0.0
2017-Nov-09 15:51N 40°50' E 014°17'0 0.0
2017-Nov-09 15:21N 40°50' E 014°17'0 0.0
2017-Nov-09 14:51N 40°50' E 014°17'0 0.0
2017-Nov-09 14:21N 40°50' E 014°17'0 0.0
2017-Nov-09 13:51N 40°50' E 014°17'0 0.0
2017-Nov-09 13:21N 40°50' E 014°17'0 0.0
2017-Nov-09 12:54N 40°50' E 014°17'0 0.0
2017-Nov-09 12:21N 40°50' E 014°17'0 0.0
2017-Nov-09 11:54N 40°50' E 014°17'0 0.0
2017-Nov-09 11:27N 40°50' E 014°17'0 0.0
2017-Nov-09 11:00N 40°50' E 014°17'1 1.3
2017-Nov-09 10:30N 40°50' E 014°17'2 3.9
2017-Nov-09 10:00N 40°48' E 014°17'3 5.7
2017-Nov-09 09:30N 40°45' E 014°16'714.6
2017-Nov-09 09:00N 40°39' E 014°11'1815.2
2017-Nov-09 07:51N 40°22' E 014°15'6318.2
2017-Nov-09 04:24N 39°29' E 014°58'718.4
2017-Nov-09 04:00N 39°23' E 015°03'1518.3
2017-Nov-09 03:10N 39°10' E 015°14'417.9
2017-Nov-09 02:58N 39°06' E 015°16'818.0
2017-Nov-09 02:30N 38°59' E 015°21'917.9
2017-Nov-09 02:01N 38°52' E 015°27'917.8
2017-Nov-09 01:30N 38°45' E 015°35'917.9
2017-Nov-09 01:00N 38°37' E 015°41'917.9
2017-Nov-09 00:31N 38°31' E 015°49'611.3
2017-Nov-09 00:01N 38°27' E 015°54'1 1.5
2017-Nov-08 23:29N 38°27' E 015°54'0 0.0
2017-Nov-08 22:59N 38°27' E 015°54'0 0.0
2017-Nov-08 22:29N 38°27' E 015°54'0 0.0
2017-Nov-08 21:56N 38°27' E 015°54'0 0.0
2017-Nov-08 21:26N 38°27' E 015°54'0 0.0
2017-Nov-08 20:59N 38°27' E 015°54'0 0.0
2017-Nov-08 20:26N 38°27' E 015°54'0 0.0
2017-Nov-08 19:59N 38°27' E 015°54'0 0.0
2017-Nov-08 19:29N 38°27' E 015°54'0 0.0
2017-Nov-08 18:59N 38°27' E 015°54'0 0.0
2017-Nov-08 18:29N 38°27' E 015°54'0 0.0
2017-Nov-08 17:59N 38°27' E 015°54'0 0.0
2017-Nov-08 17:23N 38°27' E 015°54'0 0.0
2017-Nov-08 16:59N 38°27' E 015°54'0 0.0
2017-Nov-08 16:29N 38°27' E 015°54'0 0.0
2017-Nov-08 15:56N 38°27' E 015°54'0 0.0
2017-Nov-08 15:29N 38°27' E 015°54'0 0.0
2017-Nov-08 14:59N 38°27' E 015°54'0 0.0
2017-Nov-08 14:23N 38°27' E 015°54'0 0.0
2017-Nov-08 13:59N 38°27' E 015°54'0 0.0
2017-Nov-08 13:29N 38°27' E 015°54'0 0.0
2017-Nov-08 12:56N 38°27' E 015°54'0 0.0
2017-Nov-08 12:26N 38°27' E 015°54'0 0.0
2017-Nov-08 11:56N 38°27' E 015°54'0 0.0
2017-Nov-08 11:26N 38°27' E 015°54'0 0.0
2017-Nov-08 10:56N 38°27' E 015°54'0 0.0
2017-Nov-08 10:23N 38°27' E 015°54'0 0.0
2017-Nov-08 09:44N 38°27' E 015°54'0 0.0
2017-Nov-08 09:26N 38°27' E 015°54'0 0.0
2017-Nov-08 08:56N 38°27' E 015°54'0 0.0
2017-Nov-08 08:29N 38°27' E 015°54'0 0.0
2017-Nov-08 07:47N 38°27' E 015°54'0 0.0
2017-Nov-08 07:29N 38°27' E 015°54'0 0.0
2017-Nov-08 06:50N 38°27' E 015°54'0 0.0
2017-Nov-08 06:14N 38°27' E 015°54'0 0.0
2017-Nov-08 05:56N 38°27' E 015°54'0 0.0
2017-Nov-08 05:26N 38°27' E 015°54'0 0.0
2017-Nov-08 04:44N 38°27' E 015°54'0 0.0
2017-Nov-08 04:20N 38°27' E 015°54'0 0.0
2017-Nov-08 03:56N 38°27' E 015°54'0 0.0
2017-Nov-08 03:26N 38°27' E 015°54'0 0.0
2017-Nov-08 02:56N 38°27' E 015°54'0 0.0
2017-Nov-08 02:26N 38°27' E 015°54'0 0.0
2017-Nov-08 01:56N 38°27' E 015°54'0 0.0
2017-Nov-08 01:26N 38°27' E 015°54'0 0.0
2017-Nov-08 00:56N 38°27' E 015°54'0 0.0
2017-Nov-08 00:26N 38°27' E 015°54'0 0.0
2017-Nov-07 23:56N 38°27' E 015°54'0 0.0
2017-Nov-07 23:26N 38°27' E 015°54'0 0.0
2017-Nov-07 22:56N 38°27' E 015°54'0 0.0
2017-Nov-07 22:26N 38°27' E 015°54'0 0.0
2017-Nov-07 21:56N 38°27' E 015°54'0 0.0
2017-Nov-07 21:26N 38°27' E 015°54'0 0.0
2017-Nov-07 20:56N 38°27' E 015°54'0 0.0
2017-Nov-07 18:21N 38°27' E 015°54'0 0.0
2017-Nov-07 17:52N 38°27' E 015°54'1 2.3
2017-Nov-07 17:28N 38°27' E 015°54'7 9.4
2017-Nov-07 16:45N 38°26' E 015°45'517.8
2017-Nov-07 16:30N 38°25' E 015°39'  

Dump ship's entire track history